sensor_id;sensor_type;location;lat;lon;timestamp;temperature;humidity
17956;DHT22;27666;51.498;11.966;2023-03-01T00:00:14;-0.30;99.90
17956;DHT22;27666;51.498;11.966;2023-03-01T00:03:01;-0.30;99.90
17956;DHT22;27666;51.498;11.966;2023-03-01T00:05:48;-0.30;99.90
17956;DHT22;27666;51.498;11.966;2023-03-01T00:08:35;-0.30;99.90
17956;DHT22;27666;51.498;11.966;2023-03-01T00:11:23;-0.20;99.90
17956;DHT22;27666;51.498;11.966;2023-03-01T00:14:11;-0.40;99.90
17956;DHT22;27666;51.498;11.966;2023-03-01T00:16:57;-0.40;99.90
17956;DHT22;27666;51.498;11.966;2023-03-01T00:19:45;-0.30;99.90
17956;DHT22;27666;51.498;11.966;2023-03-01T00:22:32;-0.40;99.90
17956;DHT22;27666;51.498;11.966;2023-03-01T00:25:18;-0.40;99.90
17956;DHT22;27666;51.498;11.966;2023-03-01T00:28:05;-0.40;99.90
17956;DHT22;27666;51.498;11.966;2023-03-01T00:30:51;-0.50;99.90
17956;DHT22;27666;51.498;11.966;2023-03-01T00:33:37;-0.60;99.90
17956;DHT22;27666;51.498;11.966;2023-03-01T00:36:27;-0.60;99.90
17956;DHT22;27666;51.498;11.966;2023-03-01T00:39:15;-0.60;99.90
17956;DHT22;27666;51.498;11.966;2023-03-01T00:42:02;-0.70;99.90
17956;DHT22;27666;51.498;11.966;2023-03-01T00:44:49;-0.60;99.90
17956;DHT22;27666;51.498;11.966;2023-03-01T00:47:35;-0.60;99.90
17956;DHT22;27666;51.498;11.966;2023-03-01T00:50:22;-0.70;99.90
17956;DHT22;27666;51.498;11.966;2023-03-01T00:53:11;-0.80;99.90
17956;DHT22;27666;51.498;11.966;2023-03-01T00:55:57;-0.80;99.90
17956;DHT22;27666;51.498;11.966;2023-03-01T00:58:45;-0.70;99.90
17956;DHT22;27666;51.498;11.966;2023-03-01T01:01:32;-0.80;99.90
17956;DHT22;27666;51.498;11.966;2023-03-01T01:04:19;-0.70;99.90
17956;DHT22;27666;51.498;11.966;2023-03-01T01:07:05;-0.70;99.90
17956;DHT22;27666;51.498;11.966;2023-03-01T01:09:53;-0.80;99.90
17956;DHT22;27666;51.498;11.966;2023-03-01T01:12:40;-0.80;99.90
17956;DHT22;27666;51.498;11.966;2023-03-01T01:15:26;-0.80;99.90
17956;DHT22;27666;51.498;11.966;2023-03-01T01:18:13;-0.80;99.90
17956;DHT22;27666;51.498;11.966;2023-03-01T01:21:06;-0.90;99.90
17956;DHT22;27666;51.498;11.966;2023-03-01T01:23:53;-0.90;99.90
17956;DHT22;27666;51.498;11.966;2023-03-01T01:26:41;-1.00;99.90
17956;DHT22;27666;51.498;11.966;2023-03-01T01:29:28;-1.10;99.90
17956;DHT22;27666;51.498;11.966;2023-03-01T01:32:14;-1.20;99.90
17956;DHT22;27666;51.498;11.966;2023-03-01T01:35:01;-1.10;99.90
17956;DHT22;27666;51.498;11.966;2023-03-01T01:37:47;-1.10;99.90
17956;DHT22;27666;51.498;11.966;2023-03-01T01:40:34;-1.10;99.90
17956;DHT22;27666;51.498;11.966;2023-03-01T01:43:24;-1.20;99.90
17956;DHT22;27666;51.498;11.966;2023-03-01T01:46:21;-1.10;99.90
17956;DHT22;27666;51.498;11.966;2023-03-01T01:49:23;-1.10;99.90
17956;DHT22;27666;51.498;11.966;2023-03-01T01:52:13;-1.20;99.90
17956;DHT22;27666;51.498;11.966;2023-03-01T01:55:04;-1.20;99.90
17956;DHT22;27666;51.498;11.966;2023-03-01T01:57:56;-1.30;99.90
17956;DHT22;27666;51.498;11.966;2023-03-01T02:00:45;-1.40;99.90
17956;DHT22;27666;51.498;11.966;2023-03-01T02:03:33;-1.40;99.90
17956;DHT22;27666;51.498;11.966;2023-03-01T02:06:27;-1.40;99.90
17956;DHT22;27666;51.498;11.966;2023-03-01T02:09:18;-1.40;99.90
17956;DHT22;27666;51.498;11.966;2023-03-01T02:12:06;-1.30;99.90
17956;DHT22;27666;51.498;11.966;2023-03-01T02:14:56;-1.30;99.90
17956;DHT22;27666;51.498;11.966;2023-03-01T02:17:44;-1.30;99.90
17956;DHT22;27666;51.498;11.966;2023-03-01T02:20:34;-1.30;99.90
17956;DHT22;27666;51.498;11.966;2023-03-01T02:23:22;-1.20;99.90
17956;DHT22;27666;51.498;11.966;2023-03-01T02:26:16;-1.10;99.90
17956;DHT22;27666;51.498;11.966;2023-03-01T02:29:06;-1.20;99.90
17956;DHT22;27666;51.498;11.966;2023-03-01T02:31:53;-1.20;99.90
17956;DHT22;27666;51.498;11.966;2023-03-01T02:34:42;-1.20;99.90
17956;DHT22;27666;51.498;11.966;2023-03-01T02:37:28;-1.20;99.90
17956;DHT22;27666;51.498;11.966;2023-03-01T02:43:04;-1.30;99.90
17956;DHT22;27666;51.498;11.966;2023-03-01T02:45:58;-1.40;99.90
17956;DHT22;27666;51.498;11.966;2023-03-01T02:48:47;-1.40;99.90
17956;DHT22;27666;51.498;11.966;2023-03-01T02:51:43;-1.60;99.90
17956;DHT22;27666;51.498;11.966;2023-03-01T02:54:37;-1.70;99.90
17956;DHT22;27666;51.498;11.966;2023-03-01T02:57:27;-1.70;99.90
17956;DHT22;27666;51.498;11.966;2023-03-01T03:00:17;-1.70;99.90
17956;DHT22;27666;51.498;11.966;2023-03-01T03:03:07;-1.70;99.90
17956;DHT22;27666;51.498;11.966;2023-03-01T03:05:54;-1.70;99.90
17956;DHT22;27666;51.498;11.966;2023-03-01T03:08:40;-1.60;99.90
17956;DHT22;27666;51.498;11.966;2023-03-01T03:11:27;-1.70;99.90
17956;DHT22;27666;51.498;11.966;2023-03-01T03:14:15;-1.70;99.90
17956;DHT22;27666;51.498;11.966;2023-03-01T03:17:02;-1.70;99.90
17956;DHT22;27666;51.498;11.966;2023-03-01T03:19:53;-1.80;99.90
17956;DHT22;27666;51.498;11.966;2023-03-01T03:22:40;-1.70;99.90
17956;DHT22;27666;51.498;11.966;2023-03-01T03:25:28;-1.70;99.90
17956;DHT22;27666;51.498;11.966;2023-03-01T03:28:15;-1.70;99.90
17956;DHT22;27666;51.498;11.966;2023-03-01T03:31:02;-1.70;99.90
17956;DHT22;27666;51.498;11.966;2023-03-01T03:33:49;-1.70;99.90
17956;DHT22;27666;51.498;11.966;2023-03-01T03:36:37;-1.60;99.90
17956;DHT22;27666;51.498;11.966;2023-03-01T03:39:23;-1.60;99.90
17956;DHT22;27666;51.498;11.966;2023-03-01T03:42:10;-1.60;99.90
17956;DHT22;27666;51.498;11.966;2023-03-01T03:44:56;-1.60;99.90
17956;DHT22;27666;51.498;11.966;2023-03-01T03:47:43;-1.60;99.90
17956;DHT22;27666;51.498;11.966;2023-03-01T03:50:31;-1.60;99.90
17956;DHT22;27666;51.498;11.966;2023-03-01T03:53:20;-1.70;99.90
17956;DHT22;27666;51.498;11.966;2023-03-01T03:56:07;-1.80;99.90
17956;DHT22;27666;51.498;11.966;2023-03-01T03:58:54;-1.80;99.90
17956;DHT22;27666;51.498;11.966;2023-03-01T04:01:41;-1.90;99.90
17956;DHT22;27666;51.498;11.966;2023-03-01T04:04:27;-2.00;99.90
17956;DHT22;27666;51.498;11.966;2023-03-01T04:07:14;-2.10;99.90
17956;DHT22;27666;51.498;11.966;2023-03-01T04:10:02;-2.10;99.90
17956;DHT22;27666;51.498;11.966;2023-03-01T04:12:48;-2.20;99.90
17956;DHT22;27666;51.498;11.966;2023-03-01T04:15:35;-2.20;99.90
17956;DHT22;27666;51.498;11.966;2023-03-01T04:18:23;-2.30;99.90
17956;DHT22;27666;51.498;11.966;2023-03-01T04:21:10;-2.40;99.90
17956;DHT22;27666;51.498;11.966;2023-03-01T04:23:57;-2.40;99.90
17956;DHT22;27666;51.498;11.966;2023-03-01T04:26:45;-2.50;99.90
17956;DHT22;27666;51.498;11.966;2023-03-01T04:29:31;-2.50;99.90
17956;DHT22;27666;51.498;11.966;2023-03-01T04:32:18;-2.60;99.90
17956;DHT22;27666;51.498;11.966;2023-03-01T04:35:04;-2.60;99.90
17956;DHT22;27666;51.498;11.966;2023-03-01T04:37:51;-2.60;99.90
17956;DHT22;27666;51.498;11.966;2023-03-01T04:40:38;-2.50;99.90
17956;DHT22;27666;51.498;11.966;2023-03-01T04:43:26;-2.60;99.90
17956;DHT22;27666;51.498;11.966;2023-03-01T04:46:15;-2.70;99.90
17956;DHT22;27666;51.498;11.966;2023-03-01T04:49:02;-2.70;99.90
17956;DHT22;27666;51.498;11.966;2023-03-01T04:51:49;-2.70;99.90
17956;DHT22;27666;51.498;11.966;2023-03-01T04:54:36;-2.50;99.90
17956;DHT22;27666;51.498;11.966;2023-03-01T04:57:23;-2.60;99.90
17956;DHT22;27666;51.498;11.966;2023-03-01T05:00:13;-2.50;99.90
17956;DHT22;27666;51.498;11.966;2023-03-01T05:03:09;-2.60;99.90
17956;DHT22;27666;51.498;11.966;2023-03-01T05:05:58;-2.60;99.90
17956;DHT22;27666;51.498;11.966;2023-03-01T05:08:45;-2.60;99.90
17956;DHT22;27666;51.498;11.966;2023-03-01T05:11:32;-2.80;99.90
17956;DHT22;27666;51.498;11.966;2023-03-01T05:14:21;-2.70;99.90
17956;DHT22;27666;51.498;11.966;2023-03-01T05:17:09;-2.80;99.90
17956;DHT22;27666;51.498;11.966;2023-03-01T05:19:56;-2.80;99.90
17956;DHT22;27666;51.498;11.966;2023-03-01T05:22:44;-2.80;99.90
17956;DHT22;27666;51.498;11.966;2023-03-01T05:25:32;-2.80;99.90
17956;DHT22;27666;51.498;11.966;2023-03-01T05:28:19;-2.80;99.90
17956;DHT22;27666;51.498;11.966;2023-03-01T05:31:06;-2.90;99.90
17956;DHT22;27666;51.498;11.966;2023-03-01T05:33:56;-2.90;99.90
17956;DHT22;27666;51.498;11.966;2023-03-01T05:36:42;-2.90;99.90
17956;DHT22;27666;51.498;11.966;2023-03-01T05:39:29;-2.80;99.90
17956;DHT22;27666;51.498;11.966;2023-03-01T05:42:17;-2.80;99.90
17956;DHT22;27666;51.498;11.966;2023-03-01T05:45:04;-2.70;99.90
17956;DHT22;27666;51.498;11.966;2023-03-01T05:47:55;-2.70;99.90
17956;DHT22;27666;51.498;11.966;2023-03-01T05:50:44;-2.70;99.90
17956;DHT22;27666;51.498;11.966;2023-03-01T05:53:30;-2.70;99.90
17956;DHT22;27666;51.498;11.966;2023-03-01T05:56:17;-2.70;99.90
17956;DHT22;27666;51.498;11.966;2023-03-01T05:59:04;-2.70;99.90
17956;DHT22;27666;51.498;11.966;2023-03-01T06:01:51;-2.70;99.90
17956;DHT22;27666;51.498;11.966;2023-03-01T06:04:38;-2.70;99.90
17956;DHT22;27666;51.498;11.966;2023-03-01T06:07:26;-2.60;99.90
17956;DHT22;27666;51.498;11.966;2023-03-01T06:10:14;-2.70;99.90
17956;DHT22;27666;51.498;11.966;2023-03-01T06:13:00;-2.70;99.90
17956;DHT22;27666;51.498;11.966;2023-03-01T06:15:47;-2.70;99.90
17956;DHT22;27666;51.498;11.966;2023-03-01T06:18:33;-2.60;99.90
17956;DHT22;27666;51.498;11.966;2023-03-01T06:21:20;-2.50;99.90
17956;DHT22;27666;51.498;11.966;2023-03-01T06:24:08;-2.40;99.90
17956;DHT22;27666;51.498;11.966;2023-03-01T06:26:54;-2.30;99.90
17956;DHT22;27666;51.498;11.966;2023-03-01T06:29:41;-2.10;99.90
17956;DHT22;27666;51.498;11.966;2023-03-01T06:32:30;-2.00;99.90
17956;DHT22;27666;51.498;11.966;2023-03-01T06:35:18;-1.80;99.90
17956;DHT22;27666;51.498;11.966;2023-03-01T06:38:06;-1.50;99.90
17956;DHT22;27666;51.498;11.966;2023-03-01T06:40:54;-1.20;99.90
17956;DHT22;27666;51.498;11.966;2023-03-01T06:43:41;-0.90;99.90
17956;DHT22;27666;51.498;11.966;2023-03-01T06:46:28;-0.70;99.90
17956;DHT22;27666;51.498;11.966;2023-03-01T06:49:15;-0.40;99.90
17956;DHT22;27666;51.498;11.966;2023-03-01T06:52:03;-0.30;99.90
17956;DHT22;27666;51.498;11.966;2023-03-01T06:54:49;-0.20;99.90
17956;DHT22;27666;51.498;11.966;2023-03-01T06:57:37;0.10;99.90
17956;DHT22;27666;51.498;11.966;2023-03-01T07:00:25;0.30;99.90
17956;DHT22;27666;51.498;11.966;2023-03-01T07:03:12;0.50;99.90
17956;DHT22;27666;51.498;11.966;2023-03-01T07:05:58;0.60;99.90
17956;DHT22;27666;51.498;11.966;2023-03-01T07:08:44;0.90;99.90
17956;DHT22;27666;51.498;11.966;2023-03-01T07:11:31;1.00;99.90
17956;DHT22;27666;51.498;11.966;2023-03-01T07:14:19;1.10;99.90
17956;DHT22;27666;51.498;11.966;2023-03-01T07:17:06;1.30;99.90
17956;DHT22;27666;51.498;11.966;2023-03-01T07:19:52;1.40;99.90
17956;DHT22;27666;51.498;11.966;2023-03-01T07:22:40;1.50;99.90
17956;DHT22;27666;51.498;11.966;2023-03-01T07:25:27;1.40;99.90
17956;DHT22;27666;51.498;11.966;2023-03-01T07:28:13;1.70;99.90
17956;DHT22;27666;51.498;11.966;2023-03-01T07:31:02;1.80;99.90
17956;DHT22;27666;51.498;11.966;2023-03-01T07:33:49;2.00;99.90
17956;DHT22;27666;51.498;11.966;2023-03-01T07:36:35;2.00;99.90
17956;DHT22;27666;51.498;11.966;2023-03-01T07:39:22;2.30;99.90
17956;DHT22;27666;51.498;11.966;2023-03-01T07:42:09;2.50;99.90
17956;DHT22;27666;51.498;11.966;2023-03-01T07:44:55;2.50;99.90
17956;DHT22;27666;51.498;11.966;2023-03-01T07:47:43;2.60;99.90
17956;DHT22;27666;51.498;11.966;2023-03-01T07:50:30;2.70;99.90
17956;DHT22;27666;51.498;11.966;2023-03-01T07:53:16;2.90;99.90
17956;DHT22;27666;51.498;11.966;2023-03-01T07:56:04;3.00;99.90
17956;DHT22;27666;51.498;11.966;2023-03-01T07:58:51;3.00;99.90
17956;DHT22;27666;51.498;11.966;2023-03-01T08:01:37;3.10;99.90
17956;DHT22;27666;51.498;11.966;2023-03-01T08:04:25;3.20;99.90
17956;DHT22;27666;51.498;11.966;2023-03-01T08:07:12;3.40;99.90
17956;DHT22;27666;51.498;11.966;2023-03-01T08:09:58;3.50;99.90
17956;DHT22;27666;51.498;11.966;2023-03-01T08:12:44;3.70;99.90
17956;DHT22;27666;51.498;11.966;2023-03-01T08:15:31;4.10;99.90
17956;DHT22;27666;51.498;11.966;2023-03-01T08:18:18;4.40;99.90
17956;DHT22;27666;51.498;11.966;2023-03-01T08:21:08;4.60;99.90
17956;DHT22;27666;51.498;11.966;2023-03-01T08:23:55;4.60;99.90
17956;DHT22;27666;51.498;11.966;2023-03-01T08:26:42;4.80;99.90
17956;DHT22;27666;51.498;11.966;2023-03-01T08:29:30;4.90;99.90
17956;DHT22;27666;51.498;11.966;2023-03-01T08:32:17;4.90;99.90
17956;DHT22;27666;51.498;11.966;2023-03-01T08:35:05;4.90;99.90
17956;DHT22;27666;51.498;11.966;2023-03-01T08:37:52;4.90;99.90
17956;DHT22;27666;51.498;11.966;2023-03-01T08:40:38;5.00;99.90
17956;DHT22;27666;51.498;11.966;2023-03-01T08:43:25;4.90;99.90
17956;DHT22;27666;51.498;11.966;2023-03-01T08:46:12;4.50;99.90
17956;DHT22;27666;51.498;11.966;2023-03-01T08:48:59;4.30;99.90
17956;DHT22;27666;51.498;11.966;2023-03-01T08:51:47;4.10;99.90
17956;DHT22;27666;51.498;11.966;2023-03-01T08:54:36;4.60;99.90
17956;DHT22;27666;51.498;11.966;2023-03-01T08:57:22;4.80;99.90
17956;DHT22;27666;51.498;11.966;2023-03-01T09:00:10;4.90;99.90
17956;DHT22;27666;51.498;11.966;2023-03-01T09:03:00;5.10;99.90
17956;DHT22;27666;51.498;11.966;2023-03-01T09:05:46;5.30;99.90
17956;DHT22;27666;51.498;11.966;2023-03-01T09:08:35;5.60;99.90
17956;DHT22;27666;51.498;11.966;2023-03-01T09:11:23;5.70;99.90
17956;DHT22;27666;51.498;11.966;2023-03-01T09:14:10;5.40;99.90
17956;DHT22;27666;51.498;11.966;2023-03-01T09:16:58;5.20;99.90
17956;DHT22;27666;51.498;11.966;2023-03-01T09:19:48;4.70;99.90
17956;DHT22;27666;51.498;11.966;2023-03-01T09:22:34;4.80;99.90
17956;DHT22;27666;51.498;11.966;2023-03-01T09:25:21;5.00;99.90
17956;DHT22;27666;51.498;11.966;2023-03-01T09:28:09;5.00;99.90
17956;DHT22;27666;51.498;11.966;2023-03-01T09:31:13;5.10;99.90
17956;DHT22;27666;51.498;11.966;2023-03-01T09:34:00;5.20;99.90
17956;DHT22;27666;51.498;11.966;2023-03-01T09:36:46;5.20;99.90
17956;DHT22;27666;51.498;11.966;2023-03-01T09:39:33;5.20;99.90
17956;DHT22;27666;51.498;11.966;2023-03-01T09:42:19;5.40;99.90
17956;DHT22;27666;51.498;11.966;2023-03-01T09:45:13;5.60;99.90
17956;DHT22;27666;51.498;11.966;2023-03-01T09:48:02;5.60;99.90
17956;DHT22;27666;51.498;11.966;2023-03-01T09:50:50;5.30;99.90
17956;DHT22;27666;51.498;11.966;2023-03-01T09:53:38;4.90;99.90
17956;DHT22;27666;51.498;11.966;2023-03-01T09:56:32;4.60;99.90
17956;DHT22;27666;51.498;11.966;2023-03-01T09:59:25;4.70;99.90
17956;DHT22;27666;51.498;11.966;2023-03-01T10:02:24;4.90;99.90
17956;DHT22;27666;51.498;11.966;2023-03-01T10:05:34;5.30;99.90
17956;DHT22;27666;51.498;11.966;2023-03-01T10:08:29;5.60;99.90
17956;DHT22;27666;51.498;11.966;2023-03-01T10:11:21;5.50;99.90
17956;DHT22;27666;51.498;11.966;2023-03-01T10:14:21;5.40;99.90
17956;DHT22;27666;51.498;11.966;2023-03-01T10:17:25;5.50;99.90
17956;DHT22;27666;51.498;11.966;2023-03-01T10:20:20;5.70;99.90
17956;DHT22;27666;51.498;11.966;2023-03-01T10:23:08;5.10;99.90
17956;DHT22;27666;51.498;11.966;2023-03-01T10:29:15;5.00;99.90
17956;DHT22;27666;51.498;11.966;2023-03-01T10:32:03;5.30;99.90
17956;DHT22;27666;51.498;11.966;2023-03-01T10:34:53;5.50;99.90
17956;DHT22;27666;51.498;11.966;2023-03-01T10:37:56;5.10;99.90
17956;DHT22;27666;51.498;11.966;2023-03-01T10:40:54;5.20;99.90
17956;DHT22;27666;51.498;11.966;2023-03-01T10:43:45;5.20;99.90
17956;DHT22;27666;51.498;11.966;2023-03-01T10:46:34;5.10;99.90
17956;DHT22;27666;51.498;11.966;2023-03-01T10:49:22;5.10;99.90
17956;DHT22;27666;51.498;11.966;2023-03-01T10:52:20;4.80;99.90
17956;DHT22;27666;51.498;11.966;2023-03-01T10:55:23;4.90;99.90
17956;DHT22;27666;51.498;11.966;2023-03-01T10:58:18;5.10;99.90
17956;DHT22;27666;51.498;11.966;2023-03-01T11:01:23;5.20;99.90
17956;DHT22;27666;51.498;11.966;2023-03-01T11:04:13;5.10;99.90
17956;DHT22;27666;51.498;11.966;2023-03-01T11:07:01;5.30;99.90
17956;DHT22;27666;51.498;11.966;2023-03-01T11:09:49;5.20;99.90
17956;DHT22;27666;51.498;11.966;2023-03-01T11:12:36;4.90;99.90
17956;DHT22;27666;51.498;11.966;2023-03-01T11:15:26;4.80;99.90
17956;DHT22;27666;51.498;11.966;2023-03-01T11:18:20;4.90;99.90
17956;DHT22;27666;51.498;11.966;2023-03-01T11:21:18;4.70;99.90
17956;DHT22;27666;51.498;11.966;2023-03-01T11:24:09;4.70;99.90
17956;DHT22;27666;51.498;11.966;2023-03-01T11:27:00;4.80;99.90
17956;DHT22;27666;51.498;11.966;2023-03-01T11:29:52;4.90;99.90
17956;DHT22;27666;51.498;11.966;2023-03-01T11:32:42;5.00;99.90
17956;DHT22;27666;51.498;11.966;2023-03-01T11:35:32;4.90;99.90
17956;DHT22;27666;51.498;11.966;2023-03-01T11:38:22;4.90;99.90
17956;DHT22;27666;51.498;11.966;2023-03-01T11:41:14;5.00;99.90
17956;DHT22;27666;51.498;11.966;2023-03-01T11:44:05;5.00;99.90
17956;DHT22;27666;51.498;11.966;2023-03-01T11:47:10;5.00;99.90
17956;DHT22;27666;51.498;11.966;2023-03-01T11:50:11;5.00;99.90
17956;DHT22;27666;51.498;11.966;2023-03-01T11:53:17;5.00;98.60
17956;DHT22;27666;51.498;11.966;2023-03-01T11:56:16;4.90;99.00
17956;DHT22;27666;51.498;11.966;2023-03-01T11:59:30;4.90;98.70
17956;DHT22;27666;51.498;11.966;2023-03-01T12:02:34;5.00;99.10
17956;DHT22;27666;51.498;11.966;2023-03-01T12:05:47;5.10;97.90
17956;DHT22;27666;51.498;11.966;2023-03-01T12:08:40;5.10;98.50
17956;DHT22;27666;51.498;11.966;2023-03-01T12:11:39;5.10;98.30
17956;DHT22;27666;51.498;11.966;2023-03-01T12:14:41;5.00;98.50
17956;DHT22;27666;51.498;11.966;2023-03-01T12:17:43;5.10;97.30
17956;DHT22;27666;51.498;11.966;2023-03-01T12:20:39;5.10;96.50
17956;DHT22;27666;51.498;11.966;2023-03-01T12:23:52;5.10;96.70
17956;DHT22;27666;51.498;11.966;2023-03-01T12:26:46;5.20;96.90
17956;DHT22;27666;51.498;11.966;2023-03-01T12:29:42;5.10;96.30
17956;DHT22;27666;51.498;11.966;2023-03-01T12:32:45;5.00;96.10
17956;DHT22;27666;51.498;11.966;2023-03-01T12:35:50;5.00;97.00
17956;DHT22;27666;51.498;11.966;2023-03-01T12:38:42;5.10;96.80
17956;DHT22;27666;51.498;11.966;2023-03-01T12:41:43;5.00;96.90
17956;DHT22;27666;51.498;11.966;2023-03-01T12:44:45;5.20;95.90
17956;DHT22;27666;51.498;11.966;2023-03-01T12:47:51;5.20;95.20
17956;DHT22;27666;51.498;11.966;2023-03-01T12:50:46;5.20;95.70
17956;DHT22;27666;51.498;11.966;2023-03-01T12:53:36;5.30;96.00
17956;DHT22;27666;51.498;11.966;2023-03-01T12:56:28;5.30;95.70
17956;DHT22;27666;51.498;11.966;2023-03-01T12:59:18;5.30;95.50
17956;DHT22;27666;51.498;11.966;2023-03-01T13:02:17;5.30;95.00
17956;DHT22;27666;51.498;11.966;2023-03-01T13:05:19;5.30;95.30
17956;DHT22;27666;51.498;11.966;2023-03-01T13:08:15;5.30;95.30
17956;DHT22;27666;51.498;11.966;2023-03-01T13:11:04;5.30;95.60
17956;DHT22;27666;51.498;11.966;2023-03-01T13:13:51;5.40;95.90
17956;DHT22;27666;51.498;11.966;2023-03-01T13:16:41;5.40;96.10
17956;DHT22;27666;51.498;11.966;2023-03-01T13:19:31;5.40;95.40
17956;DHT22;27666;51.498;11.966;2023-03-01T13:22:29;5.40;95.10
17956;DHT22;27666;51.498;11.966;2023-03-01T13:25:19;5.40;95.20
17956;DHT22;27666;51.498;11.966;2023-03-01T13:28:41;5.40;94.20
17956;DHT22;27666;51.498;11.966;2023-03-01T13:31:58;5.50;94.50
17956;DHT22;27666;51.498;11.966;2023-03-01T13:34:54;5.60;94.60
17956;DHT22;27666;51.498;11.966;2023-03-01T13:37:41;5.60;94.70
17956;DHT22;27666;51.498;11.966;2023-03-01T13:40:58;5.60;94.40
17956;DHT22;27666;51.498;11.966;2023-03-01T13:43:46;5.70;93.70
17956;DHT22;27666;51.498;11.966;2023-03-01T13:46:34;5.70;93.30
17956;DHT22;27666;51.498;11.966;2023-03-01T13:49:22;5.70;93.70
17956;DHT22;27666;51.498;11.966;2023-03-01T13:52:37;5.70;93.60
17956;DHT22;27666;51.498;11.966;2023-03-01T13:55:32;5.70;93.50
17956;DHT22;27666;51.498;11.966;2023-03-01T13:58:24;5.80;92.80
17956;DHT22;27666;51.498;11.966;2023-03-01T14:01:21;5.70;92.50
17956;DHT22;27666;51.498;11.966;2023-03-01T14:04:20;5.70;92.90
17956;DHT22;27666;51.498;11.966;2023-03-01T14:07:12;5.80;92.90
17956;DHT22;27666;51.498;11.966;2023-03-01T14:10:02;5.80;92.40
17956;DHT22;27666;51.498;11.966;2023-03-01T14:12:53;6.00;91.50
17956;DHT22;27666;51.498;11.966;2023-03-01T14:15:54;6.00;91.00
17956;DHT22;27666;51.498;11.966;2023-03-01T14:18:47;6.00;90.90
17956;DHT22;27666;51.498;11.966;2023-03-01T14:21:38;6.00;90.00
17956;DHT22;27666;51.498;11.966;2023-03-01T14:24:25;6.00;90.30
17956;DHT22;27666;51.498;11.966;2023-03-01T14:27:14;6.10;89.80
17956;DHT22;27666;51.498;11.966;2023-03-01T14:30:02;6.10;89.10
17956;DHT22;27666;51.498;11.966;2023-03-01T14:32:54;6.10;88.80
17956;DHT22;27666;51.498;11.966;2023-03-01T14:35:41;6.20;89.00
17956;DHT22;27666;51.498;11.966;2023-03-01T14:38:33;6.30;90.30
17956;DHT22;27666;51.498;11.966;2023-03-01T14:41:22;6.30;91.00
17956;DHT22;27666;51.498;11.966;2023-03-01T14:44:16;6.40;90.90
17956;DHT22;27666;51.498;11.966;2023-03-01T14:47:05;6.30;91.70
17956;DHT22;27666;51.498;11.966;2023-03-01T14:49:56;6.30;91.40
17956;DHT22;27666;51.498;11.966;2023-03-01T14:52:47;6.30;91.80
17956;DHT22;27666;51.498;11.966;2023-03-01T14:55:36;6.30;92.00
17956;DHT22;27666;51.498;11.966;2023-03-01T14:58:25;6.30;90.80
17956;DHT22;27666;51.498;11.966;2023-03-01T15:01:15;6.30;90.80
17956;DHT22;27666;51.498;11.966;2023-03-01T15:04:02;6.30;90.50
17956;DHT22;27666;51.498;11.966;2023-03-01T15:06:50;6.30;90.90
17956;DHT22;27666;51.498;11.966;2023-03-01T15:09:40;6.20;90.50
17956;DHT22;27666;51.498;11.966;2023-03-01T15:12:39;6.30;88.20
17956;DHT22;27666;51.498;11.966;2023-03-01T15:15:35;6.30;88.10
17956;DHT22;27666;51.498;11.966;2023-03-01T15:18:27;6.20;87.80
17956;DHT22;27666;51.498;11.966;2023-03-01T15:21:17;6.20;89.50
17956;DHT22;27666;51.498;11.966;2023-03-01T15:24:07;6.20;89.60
17956;DHT22;27666;51.498;11.966;2023-03-01T15:26:58;6.30;89.70
17956;DHT22;27666;51.498;11.966;2023-03-01T15:29:49;6.20;90.40
17956;DHT22;27666;51.498;11.966;2023-03-01T15:32:36;6.10;91.30
17956;DHT22;27666;51.498;11.966;2023-03-01T15:35:40;6.10;91.90
17956;DHT22;27666;51.498;11.966;2023-03-01T15:38:34;6.10;92.20
17956;DHT22;27666;51.498;11.966;2023-03-01T15:41:27;6.10;92.50
17956;DHT22;27666;51.498;11.966;2023-03-01T15:44:17;6.10;92.10
17956;DHT22;27666;51.498;11.966;2023-03-01T15:47:22;6.00;92.50
17956;DHT22;27666;51.498;11.966;2023-03-01T15:50:16;6.00;92.80
17956;DHT22;27666;51.498;11.966;2023-03-01T15:53:07;6.00;93.10
17956;DHT22;27666;51.498;11.966;2023-03-01T15:55:56;5.90;93.40
17956;DHT22;27666;51.498;11.966;2023-03-01T15:58:44;5.90;93.30
17956;DHT22;27666;51.498;11.966;2023-03-01T16:01:31;5.80;93.50
17956;DHT22;27666;51.498;11.966;2023-03-01T16:04:19;5.90;93.50
17956;DHT22;27666;51.498;11.966;2023-03-01T16:07:09;5.80;93.60
17956;DHT22;27666;51.498;11.966;2023-03-01T16:09:57;5.80;93.40
17956;DHT22;27666;51.498;11.966;2023-03-01T16:12:44;5.70;93.60
17956;DHT22;27666;51.498;11.966;2023-03-01T16:15:33;5.70;93.90
17956;DHT22;27666;51.498;11.966;2023-03-01T16:18:20;5.70;94.20
17956;DHT22;27666;51.498;11.966;2023-03-01T16:21:08;5.70;94.70
17956;DHT22;27666;51.498;11.966;2023-03-01T16:23:56;5.50;95.10
17956;DHT22;27666;51.498;11.966;2023-03-01T16:26:44;5.50;95.30
17956;DHT22;27666;51.498;11.966;2023-03-01T16:29:31;5.50;95.40
17956;DHT22;27666;51.498;11.966;2023-03-01T16:32:18;5.40;95.40
17956;DHT22;27666;51.498;11.966;2023-03-01T16:35:05;5.40;95.60
17956;DHT22;27666;51.498;11.966;2023-03-01T16:37:53;5.30;95.90
17956;DHT22;27666;51.498;11.966;2023-03-01T16:40:39;5.20;96.10
17956;DHT22;27666;51.498;11.966;2023-03-01T16:43:29;5.30;96.40
17956;DHT22;27666;51.498;11.966;2023-03-01T16:46:18;5.10;96.60
17956;DHT22;27666;51.498;11.966;2023-03-01T16:49:05;5.10;96.90
17956;DHT22;27666;51.498;11.966;2023-03-01T16:51:53;5.10;97.20
17956;DHT22;27666;51.498;11.966;2023-03-01T16:54:40;5.00;97.50
17956;DHT22;27666;51.498;11.966;2023-03-01T16:57:26;4.90;97.80
17956;DHT22;27666;51.498;11.966;2023-03-01T17:00:17;4.90;98.30
17956;DHT22;27666;51.498;11.966;2023-03-01T17:03:04;4.70;98.50
17956;DHT22;27666;51.498;11.966;2023-03-01T17:05:51;4.70;99.00
17956;DHT22;27666;51.498;11.966;2023-03-01T17:08:38;4.70;99.60
17956;DHT22;27666;51.498;11.966;2023-03-01T17:11:25;4.50;99.60
17956;DHT22;27666;51.498;11.966;2023-03-01T17:14:13;4.40;99.90
17956;DHT22;27666;51.498;11.966;2023-03-01T17:17:01;4.50;99.90
17956;DHT22;27666;51.498;11.966;2023-03-01T17:19:49;4.30;99.90
17956;DHT22;27666;51.498;11.966;2023-03-01T17:22:35;4.40;99.90
17956;DHT22;27666;51.498;11.966;2023-03-01T17:25:22;4.30;99.90
17956;DHT22;27666;51.498;11.966;2023-03-01T17:28:09;4.20;99.90
17956;DHT22;27666;51.498;11.966;2023-03-01T17:30:56;4.10;99.90
17956;DHT22;27666;51.498;11.966;2023-03-01T17:33:43;4.00;99.90
17956;DHT22;27666;51.498;11.966;2023-03-01T17:36:30;4.00;99.90
17956;DHT22;27666;51.498;11.966;2023-03-01T17:39:26;4.00;99.90
17956;DHT22;27666;51.498;11.966;2023-03-01T17:42:20;3.90;99.90
17956;DHT22;27666;51.498;11.966;2023-03-01T17:45:07;3.90;99.90
17956;DHT22;27666;51.498;11.966;2023-03-01T17:47:53;3.80;99.90
17956;DHT22;27666;51.498;11.966;2023-03-01T17:50:41;3.80;99.90
17956;DHT22;27666;51.498;11.966;2023-03-01T17:53:28;3.70;99.90